sensor_id;sensor_type;location;lat;lon;timestamp;P1;durP1;ratioP1;P2;durP2;ratioP2
35917;SDS011;22011;59.912;30.300;2022-07-29T00:01:29;2.30;;;1.70;;
35917;SDS011;22011;59.912;30.300;2022-07-29T00:03:57;3.95;;;1.83;;
35917;SDS011;22011;59.912;30.300;2022-07-29T00:06:25;2.65;;;1.63;;
35917;SDS011;22011;59.912;30.300;2022-07-29T00:08:53;3.08;;;1.75;;
35917;SDS011;22011;59.912;30.300;2022-07-29T00:11:21;3.05;;;1.98;;
35917;SDS011;22011;59.912;30.300;2022-07-29T00:13:48;3.17;;;1.50;;
35917;SDS011;22011;59.912;30.300;2022-07-29T00:16:16;2.92;;;1.80;;
35917;SDS011;22011;59.912;30.300;2022-07-29T00:18:43;4.53;;;2.08;;
35917;SDS011;22011;59.912;30.300;2022-07-29T00:21:11;4.35;;;1.88;;
35917;SDS011;22011;59.912;30.300;2022-07-29T00:23:40;5.78;;;2.40;;
35917;SDS011;22011;59.912;30.300;2022-07-29T00:26:08;8.13;;;2.30;;
35917;SDS011;22011;59.912;30.300;2022-07-29T00:28:35;5.32;;;2.28;;
35917;SDS011;22011;59.912;30.300;2022-07-29T00:31:03;3.75;;;2.33;;
35917;SDS011;22011;59.912;30.300;2022-07-29T00:33:31;4.38;;;2.22;;
35917;SDS011;22011;59.912;30.300;2022-07-29T00:35:58;2.53;;;2.20;;
35917;SDS011;22011;59.912;30.300;2022-07-29T00:38:25;6.53;;;2.38;;
35917;SDS011;22011;59.912;30.300;2022-07-29T00:40:54;5.63;;;1.95;;
35917;SDS011;22011;59.912;30.300;2022-07-29T00:43:21;3.10;;;1.35;;
35917;SDS011;22011;59.912;30.300;2022-07-29T00:45:49;3.42;;;1.48;;
35917;SDS011;22011;59.912;30.300;2022-07-29T00:48:16;3.97;;;1.40;;
35917;SDS011;22011;59.912;30.300;2022-07-29T00:50:44;5.53;;;1.83;;
35917;SDS011;22011;59.912;30.300;2022-07-29T00:53:12;5.25;;;1.55;;
35917;SDS011;22011;59.912;30.300;2022-07-29T00:55:39;5.05;;;1.85;;
35917;SDS011;22011;59.912;30.300;2022-07-29T00:58:08;5.35;;;2.10;;
35917;SDS011;22011;59.912;30.300;2022-07-29T01:00:39;4.53;;;1.75;;
35917;SDS011;22011;59.912;30.300;2022-07-29T01:03:07;3.60;;;1.90;;
35917;SDS011;22011;59.912;30.300;2022-07-29T01:05:35;3.45;;;1.83;;
35917;SDS011;22011;59.912;30.300;2022-07-29T01:08:03;4.97;;;1.95;;
35917;SDS011;22011;59.912;30.300;2022-07-29T01:10:32;3.83;;;1.70;;
35917;SDS011;22011;59.912;30.300;2022-07-29T01:13:01;2.97;;;1.58;;
35917;SDS011;22011;59.912;30.300;2022-07-29T01:15:30;3.42;;;1.60;;
35917;SDS011;22011;59.912;30.300;2022-07-29T01:18:01;2.03;;;1.63;;
35917;SDS011;22011;59.912;30.300;2022-07-29T01:20:43;4.90;;;1.75;;
35917;SDS011;22011;59.912;30.300;2022-07-29T01:26:34;4.60;;;1.40;;
35917;SDS011;22011;59.912;30.300;2022-07-29T01:29:21;1.25;;;1.15;;
35917;SDS011;22011;59.912;30.300;2022-07-29T01:31:54;1.30;;;1.20;;
35917;SDS011;22011;59.912;30.300;2022-07-29T01:34:27;1.77;;;1.05;;
35917;SDS011;22011;59.912;30.300;2022-07-29T01:37:03;1.40;;;1.30;;
35917;SDS011;22011;59.912;30.300;2022-07-29T01:39:36;3.40;;;1.20;;
35917;SDS011;22011;59.912;30.300;2022-07-29T01:42:06;1.38;;;1.25;;
35917;SDS011;22011;59.912;30.300;2022-07-29T01:44:45;3.67;;;1.15;;
35917;SDS011;22011;59.912;30.300;2022-07-29T01:47:19;1.33;;;1.10;;
35917;SDS011;22011;59.912;30.300;2022-07-29T01:49:51;1.17;;;0.93;;
35917;SDS011;22011;59.912;30.300;2022-07-29T01:52:23;3.08;;;1.15;;
35917;SDS011;22011;59.912;30.300;2022-07-29T01:54:55;2.40;;;1.23;;
35917;SDS011;22011;59.912;30.300;2022-07-29T01:57:26;2.22;;;1.25;;
35917;SDS011;22011;59.912;30.300;2022-07-29T01:59:58;2.88;;;1.20;;
35917;SDS011;22011;59.912;30.300;2022-07-29T02:02:38;4.75;;;1.50;;
35917;SDS011;22011;59.912;30.300;2022-07-29T02:05:08;3.63;;;1.23;;
35917;SDS011;22011;59.912;30.300;2022-07-29T02:07:39;1.10;;;1.00;;
35917;SDS011;22011;59.912;30.300;2022-07-29T02:10:09;1.25;;;0.95;;
35917;SDS011;22011;59.912;30.300;2022-07-29T02:12:39;1.42;;;0.90;;
35917;SDS011;22011;59.912;30.300;2022-07-29T02:15:09;1.98;;;1.08;;
35917;SDS011;22011;59.912;30.300;2022-07-29T02:17:39;1.70;;;1.30;;
35917;SDS011;22011;59.912;30.300;2022-07-29T02:20:09;2.03;;;0.93;;
35917;SDS011;22011;59.912;30.300;2022-07-29T02:22:38;2.35;;;1.10;;
35917;SDS011;22011;59.912;30.300;2022-07-29T02:25:07;1.65;;;1.02;;
35917;SDS011;22011;59.912;30.300;2022-07-29T02:27:36;4.40;;;1.15;;
35917;SDS011;22011;59.912;30.300;2022-07-29T02:30:06;2.20;;;1.00;;
35917;SDS011;22011;59.912;30.300;2022-07-29T02:32:38;1.45;;;0.95;;
35917;SDS011;22011;59.912;30.300;2022-07-29T02:35:08;2.28;;;1.00;;
35917;SDS011;22011;59.912;30.300;2022-07-29T02:37:37;1.27;;;1.15;;
35917;SDS011;22011;59.912;30.300;2022-07-29T02:40:08;2.43;;;1.10;;
35917;SDS011;22011;59.912;30.300;2022-07-29T02:42:38;4.78;;;1.20;;
35917;SDS011;22011;59.912;30.300;2022-07-29T02:45:10;3.28;;;1.30;;
35917;SDS011;22011;59.912;30.300;2022-07-29T02:47:40;3.17;;;1.63;;
35917;SDS011;22011;59.912;30.300;2022-07-29T02:50:12;2.47;;;1.70;;
35917;SDS011;22011;59.912;30.300;2022-07-29T02:52:44;2.80;;;1.70;;
35917;SDS011;22011;59.912;30.300;2022-07-29T02:55:16;3.00;;;2.03;;
35917;SDS011;22011;59.912;30.300;2022-07-29T02:57:49;3.88;;;1.50;;
35917;SDS011;22011;59.912;30.300;2022-07-29T03:00:23;2.80;;;1.50;;
35917;SDS011;22011;59.912;30.300;2022-07-29T03:02:54;1.35;;;1.25;;
35917;SDS011;22011;59.912;30.300;2022-07-29T03:05:25;2.20;;;1.55;;
35917;SDS011;22011;59.912;30.300;2022-07-29T03:07:55;2.58;;;1.77;;
35917;SDS011;22011;59.912;30.300;2022-07-29T03:10:25;3.92;;;1.90;;
35917;SDS011;22011;59.912;30.300;2022-07-29T03:12:54;2.47;;;1.70;;
35917;SDS011;22011;59.912;30.300;2022-07-29T03:15:24;5.38;;;1.67;;
35917;SDS011;22011;59.912;30.300;2022-07-29T03:17:52;5.18;;;2.20;;
35917;SDS011;22011;59.912;30.300;2022-07-29T03:20:21;4.43;;;1.58;;
35917;SDS011;22011;59.912;30.300;2022-07-29T03:22:49;2.30;;;1.67;;
35917;SDS011;22011;59.912;30.300;2022-07-29T03:25:18;3.13;;;1.10;;
35917;SDS011;22011;59.912;30.300;2022-07-29T03:27:47;2.35;;;1.30;;
35917;SDS011;22011;59.912;30.300;2022-07-29T03:30:15;2.40;;;1.30;;
35917;SDS011;22011;59.912;30.300;2022-07-29T03:32:44;3.28;;;1.50;;
35917;SDS011;22011;59.912;30.300;2022-07-29T03:35:12;3.20;;;1.23;;
35917;SDS011;22011;59.912;30.300;2022-07-29T03:37:39;4.95;;;1.20;;
35917;SDS011;22011;59.912;30.300;2022-07-29T03:40:07;3.65;;;1.25;;
35917;SDS011;22011;59.912;30.300;2022-07-29T03:42:37;2.17;;;1.23;;
35917;SDS011;22011;59.912;30.300;2022-07-29T03:45:10;2.25;;;1.55;;
35917;SDS011;22011;59.912;30.300;2022-07-29T03:47:41;1.90;;;1.40;;
35917;SDS011;22011;59.912;30.300;2022-07-29T03:50:13;1.65;;;1.20;;
35917;SDS011;22011;59.912;30.300;2022-07-29T03:52:42;3.15;;;1.65;;
35917;SDS011;22011;59.912;30.300;2022-07-29T03:55:10;2.72;;;1.33;;
35917;SDS011;22011;59.912;30.300;2022-07-29T03:57:38;3.45;;;1.65;;
35917;SDS011;22011;59.912;30.300;2022-07-29T04:00:07;3.13;;;1.38;;
35917;SDS011;22011;59.912;30.300;2022-07-29T04:02:36;3.78;;;1.70;;
35917;SDS011;22011;59.912;30.300;2022-07-29T04:05:07;1.52;;;1.42;;
35917;SDS011;22011;59.912;30.300;2022-07-29T04:07:42;4.45;;;1.58;;
35917;SDS011;22011;59.912;30.300;2022-07-29T04:10:10;3.00;;;1.63;;
35917;SDS011;22011;59.912;30.300;2022-07-29T04:12:38;3.95;;;1.60;;
35917;SDS011;22011;59.912;30.300;2022-07-29T04:15:06;4.43;;;1.85;;
35917;SDS011;22011;59.912;30.300;2022-07-29T04:17:34;4.57;;;1.50;;
35917;SDS011;22011;59.912;30.300;2022-07-29T04:20:02;3.78;;;1.27;;
35917;SDS011;22011;59.912;30.300;2022-07-29T04:22:30;3.10;;;1.55;;
35917;SDS011;22011;59.912;30.300;2022-07-29T04:24:59;3.80;;;1.48;;
35917;SDS011;22011;59.912;30.300;2022-07-29T04:27:27;2.80;;;1.50;;
35917;SDS011;22011;59.912;30.300;2022-07-29T04:29:54;2.50;;;1.60;;
35917;SDS011;22011;59.912;30.300;2022-07-29T04:32:22;6.28;;;1.55;;
35917;SDS011;22011;59.912;30.300;2022-07-29T04:34:49;3.83;;;1.10;;
35917;SDS011;22011;59.912;30.300;2022-07-29T04:37:17;1.90;;;1.10;;
35917;SDS011;22011;59.912;30.300;2022-07-29T04:39:44;3.47;;;1.70;;
35917;SDS011;22011;59.912;30.300;2022-07-29T04:42:13;1.60;;;1.00;;
35917;SDS011;22011;59.912;30.300;2022-07-29T04:44:41;3.15;;;1.35;;
35917;SDS011;22011;59.912;30.300;2022-07-29T04:47:08;1.77;;;1.35;;
35917;SDS011;22011;59.912;30.300;2022-07-29T04:49:37;3.50;;;1.20;;
35917;SDS011;22011;59.912;30.300;2022-07-29T04:52:05;2.35;;;1.00;;
35917;SDS011;22011;59.912;30.300;2022-07-29T04:54:32;2.95;;;1.40;;
35917;SDS011;22011;59.912;30.300;2022-07-29T04:57:00;2.38;;;1.60;;
35917;SDS011;22011;59.912;30.300;2022-07-29T04:59:29;2.53;;;1.65;;
35917;SDS011;22011;59.912;30.300;2022-07-29T05:01:56;1.27;;;1.00;;
35917;SDS011;22011;59.912;30.300;2022-07-29T05:04:24;1.20;;;1.10;;
35917;SDS011;22011;59.912;30.300;2022-07-29T05:06:52;2.78;;;1.20;;
35917;SDS011;22011;59.912;30.300;2022-07-29T05:09:19;2.97;;;1.20;;
35917;SDS011;22011;59.912;30.300;2022-07-29T05:11:47;2.42;;;1.40;;
35917;SDS011;22011;59.912;30.300;2022-07-29T05:14:14;2.85;;;1.50;;
35917;SDS011;22011;59.912;30.300;2022-07-29T05:16:43;3.85;;;1.85;;
35917;SDS011;22011;59.912;30.300;2022-07-29T05:19:11;2.47;;;1.23;;
35917;SDS011;22011;59.912;30.300;2022-07-29T05:21:38;4.78;;;1.20;;
35917;SDS011;22011;59.912;30.300;2022-07-29T05:24:06;3.30;;;1.30;;
35917;SDS011;22011;59.912;30.300;2022-07-29T05:26:34;1.92;;;1.20;;
35917;SDS011;22011;59.912;30.300;2022-07-29T05:29:02;1.55;;;1.33;;
35917;SDS011;22011;59.912;30.300;2022-07-29T05:31:29;2.17;;;0.88;;
35917;SDS011;22011;59.912;30.300;2022-07-29T05:33:58;2.55;;;1.40;;
35917;SDS011;22011;59.912;30.300;2022-07-29T05:36:26;1.73;;;1.02;;
35917;SDS011;22011;59.912;30.300;2022-07-29T05:38:53;1.88;;;1.20;;
35917;SDS011;22011;59.912;30.300;2022-07-29T05:41:21;12.40;;;1.35;;
35917;SDS011;22011;59.912;30.300;2022-07-29T05:43:49;8.80;;;1.40;;
35917;SDS011;22011;59.912;30.300;2022-07-29T05:46:16;8.02;;;1.98;;
35917;SDS011;22011;59.912;30.300;2022-07-29T05:48:44;27.67;;;2.55;;
35917;SDS011;22011;59.912;30.300;2022-07-29T05:51:13;8.45;;;1.40;;
35917;SDS011;22011;59.912;30.300;2022-07-29T05:53:40;13.02;;;1.50;;
35917;SDS011;22011;59.912;30.300;2022-07-29T05:56:08;4.38;;;3.42;;
35917;SDS011;22011;59.912;30.300;2022-07-29T05:58:35;7.03;;;3.58;;
35917;SDS011;22011;59.912;30.300;2022-07-29T06:01:03;5.80;;;2.13;;
35917;SDS011;22011;59.912;30.300;2022-07-29T06:03:31;6.28;;;2.42;;
35917;SDS011;22011;59.912;30.300;2022-07-29T06:05:58;14.48;;;3.40;;
35917;SDS011;22011;59.912;30.300;2022-07-29T06:08:27;4.38;;;3.80;;
35917;SDS011;22011;59.912;30.300;2022-07-29T06:10:55;3.38;;;1.50;;
35917;SDS011;22011;59.912;30.300;2022-07-29T06:13:22;2.70;;;0.90;;
35917;SDS011;22011;59.912;30.300;2022-07-29T06:15:50;2.65;;;1.10;;
35917;SDS011;22011;59.912;30.300;2022-07-29T06:18:17;3.25;;;0.80;;
35917;SDS011;22011;59.912;30.300;2022-07-29T06:20:46;1.55;;;0.80;;
35917;SDS011;22011;59.912;30.300;2022-07-29T06:23:14;1.25;;;0.85;;
35917;SDS011;22011;59.912;30.300;2022-07-29T06:25:43;1.15;;;0.85;;
35917;SDS011;22011;59.912;30.300;2022-07-29T06:28:10;3.75;;;1.00;;
35917;SDS011;22011;59.912;30.300;2022-07-29T06:30:38;1.70;;;1.10;;
35917;SDS011;22011;59.912;30.300;2022-07-29T06:33:06;2.28;;;1.00;;
35917;SDS011;22011;59.912;30.300;2022-07-29T06:35:34;1.83;;;1.00;;
35917;SDS011;22011;59.912;30.300;2022-07-29T06:38:02;1.88;;;1.05;;
35917;SDS011;22011;59.912;30.300;2022-07-29T06:40:30;1.25;;;0.82;;
35917;SDS011;22011;59.912;30.300;2022-07-29T06:43:16;4.45;;;1.10;;
35917;SDS011;22011;59.912;30.300;2022-07-29T06:45:44;6.55;;;1.38;;
35917;SDS011;22011;59.912;30.300;2022-07-29T06:48:11;1.98;;;1.30;;
35917;SDS011;22011;59.912;30.300;2022-07-29T06:50:39;1.25;;;0.95;;
35917;SDS011;22011;59.912;30.300;2022-07-29T06:53:06;5.65;;;1.90;;
35917;SDS011;22011;59.912;30.300;2022-07-29T06:55:34;3.78;;;1.25;;
35917;SDS011;22011;59.912;30.300;2022-07-29T06:58:02;3.72;;;1.33;;
35917;SDS011;22011;59.912;30.300;2022-07-29T07:00:31;3.90;;;1.08;;
35917;SDS011;22011;59.912;30.300;2022-07-29T07:02:59;2.45;;;1.23;;
35917;SDS011;22011;59.912;30.300;2022-07-29T07:05:26;4.90;;;1.00;;
35917;SDS011;22011;59.912;30.300;2022-07-29T07:07:54;2.78;;;1.20;;
35917;SDS011;22011;59.912;30.300;2022-07-29T07:10:21;7.53;;;1.00;;
35917;SDS011;22011;59.912;30.300;2022-07-29T07:12:49;5.30;;;1.50;;
35917;SDS011;22011;59.912;30.300;2022-07-29T07:15:17;4.57;;;1.05;;
35917;SDS011;22011;59.912;30.300;2022-07-29T07:17:49;1.80;;;1.00;;
35917;SDS011;22011;59.912;30.300;2022-07-29T07:20:16;4.03;;;1.13;;
35917;SDS011;22011;59.912;30.300;2022-07-29T07:22:44;4.78;;;1.25;;
35917;SDS011;22011;59.912;30.300;2022-07-29T07:25:12;9.77;;;1.60;;
35917;SDS011;22011;59.912;30.300;2022-07-29T07:27:40;2.15;;;0.75;;
35917;SDS011;22011;59.912;30.300;2022-07-29T07:30:08;3.28;;;1.00;;
35917;SDS011;22011;59.912;30.300;2022-07-29T07:32:36;4.57;;;1.08;;
35917;SDS011;22011;59.912;30.300;2022-07-29T07:35:05;15.25;;;3.15;;
35917;SDS011;22011;59.912;30.300;2022-07-29T07:37:35;6.28;;;0.75;;
35917;SDS011;22011;59.912;30.300;2022-07-29T07:40:03;3.97;;;1.50;;
35917;SDS011;22011;59.912;30.300;2022-07-29T07:42:31;3.60;;;0.90;;
35917;SDS011;22011;59.912;30.300;2022-07-29T07:44:59;2.55;;;0.77;;
35917;SDS011;22011;59.912;30.300;2022-07-29T07:47:27;4.28;;;1.48;;
35917;SDS011;22011;59.912;30.300;2022-07-29T07:49:54;3.58;;;0.80;;
35917;SDS011;22011;59.912;30.300;2022-07-29T07:52:23;2.28;;;0.88;;
35917;SDS011;22011;59.912;30.300;2022-07-29T07:54:51;5.13;;;2.90;;
35917;SDS011;22011;59.912;30.300;2022-07-29T07:57:18;4.57;;;1.50;;
35917;SDS011;22011;59.912;30.300;2022-07-29T07:59:46;1.58;;;1.10;;
35917;SDS011;22011;59.912;30.300;2022-07-29T08:02:13;2.42;;;1.00;;
35917;SDS011;22011;59.912;30.300;2022-07-29T08:04:41;5.68;;;1.08;;
35917;SDS011;22011;59.912;30.300;2022-07-29T08:07:09;3.35;;;1.10;;
35917;SDS011;22011;59.912;30.300;2022-07-29T08:09:38;2.85;;;0.60;;
35917;SDS011;22011;59.912;30.300;2022-07-29T08:12:05;2.67;;;1.30;;
35917;SDS011;22011;59.912;30.300;2022-07-29T08:14:33;3.42;;;1.50;;
35917;SDS011;22011;59.912;30.300;2022-07-29T08:17:01;4.20;;;1.00;;
35917;SDS011;22011;59.912;30.300;2022-07-29T08:19:29;5.10;;;1.25;;
35917;SDS011;22011;59.912;30.300;2022-07-29T08:21:56;2.08;;;0.82;;
35917;SDS011;22011;59.912;30.300;2022-07-29T08:24:24;1.25;;;0.80;;
35917;SDS011;22011;59.912;30.300;2022-07-29T08:27:11;1.88;;;1.00;;
35917;SDS011;22011;59.912;30.300;2022-07-29T08:29:39;3.75;;;1.40;;
35917;SDS011;22011;59.912;30.300;2022-07-29T08:32:07;3.95;;;1.73;;
35917;SDS011;22011;59.912;30.300;2022-07-29T08:34:35;2.92;;;1.90;;
35917;SDS011;22011;59.912;30.300;2022-07-29T08:37:02;6.68;;;1.30;;
35917;SDS011;22011;59.912;30.300;2022-07-29T08:39:30;3.90;;;1.40;;
35917;SDS011;22011;59.912;30.300;2022-07-29T08:41:57;6.28;;;1.05;;
35917;SDS011;22011;59.912;30.300;2022-07-29T08:44:26;1.75;;;0.88;;
35917;SDS011;22011;59.912;30.300;2022-07-29T08:46:54;2.28;;;0.90;;
35917;SDS011;22011;59.912;30.300;2022-07-29T08:49:22;1.55;;;1.10;;
35917;SDS011;22011;59.912;30.300;2022-07-29T08:51:49;5.43;;;1.77;;
35917;SDS011;22011;59.912;30.300;2022-07-29T08:54:17;7.32;;;1.30;;
35917;SDS011;22011;59.912;30.300;2022-07-29T08:56:47;4.68;;;1.25;;
35917;SDS011;22011;59.912;30.300;2022-07-29T09:01:47;2.70;;;0.90;;
35917;SDS011;22011;59.912;30.300;2022-07-29T09:04:16;2.15;;;0.90;;
35917;SDS011;22011;59.912;30.300;2022-07-29T09:06:47;1.75;;;1.10;;
35917;SDS011;22011;59.912;30.300;2022-07-29T09:09:16;1.98;;;1.10;;
35917;SDS011;22011;59.912;30.300;2022-07-29T09:11:44;4.43;;;0.98;;
35917;SDS011;22011;59.912;30.300;2022-07-29T09:14:11;1.63;;;1.20;;
35917;SDS011;22011;59.912;30.300;2022-07-29T09:16:43;4.88;;;1.13;;
35917;SDS011;22011;59.912;30.300;2022-07-29T09:19:20;2.28;;;1.10;;
35917;SDS011;22011;59.912;30.300;2022-07-29T09:21:49;3.30;;;0.80;;
35917;SDS011;22011;59.912;30.300;2022-07-29T09:24:26;4.28;;;0.95;;
35917;SDS011;22011;59.912;30.300;2022-07-29T09:27:08;4.38;;;0.88;;
35917;SDS011;22011;59.912;30.300;2022-07-29T09:29:47;1.60;;;0.75;;
35917;SDS011;22011;59.912;30.300;2022-07-29T09:32:21;2.95;;;0.57;;
35917;SDS011;22011;59.912;30.300;2022-07-29T09:34:50;1.88;;;0.52;;
35917;SDS011;22011;59.912;30.300;2022-07-29T09:37:38;0.80;;;0.60;;
35917;SDS011;22011;59.912;30.300;2022-07-29T09:40:10;4.43;;;0.95;;
35917;SDS011;22011;59.912;30.300;2022-07-29T09:42:39;0.90;;;0.77;;
35917;SDS011;22011;59.912;30.300;2022-07-29T09:45:07;5.28;;;0.82;;
35917;SDS011;22011;59.912;30.300;2022-07-29T09:47:41;5.25;;;1.08;;
35917;SDS011;22011;59.912;30.300;2022-07-29T09:50:16;2.50;;;0.73;;
35917;SDS011;22011;59.912;30.300;2022-07-29T09:52:45;2.58;;;0.93;;
35917;SDS011;22011;59.912;30.300;2022-07-29T09:55:15;0.50;;;0.40;;
35917;SDS011;22011;59.912;30.300;2022-07-29T09:57:43;8.02;;;0.95;;
35917;SDS011;22011;59.912;30.300;2022-07-29T10:00:12;4.95;;;0.80;;
35917;SDS011;22011;59.912;30.300;2022-07-29T10:02:44;0.80;;;0.50;;
35917;SDS011;22011;59.912;30.300;2022-07-29T10:05:18;4.50;;;0.90;;
35917;SDS011;22011;59.912;30.300;2022-07-29T10:07:48;3.25;;;0.85;;
35917;SDS011;22011;59.912;30.300;2022-07-29T10:10:21;0.50;;;0.50;;
35917;SDS011;22011;59.912;30.300;2022-07-29T10:12:51;9.07;;;0.70;;
35917;SDS011;22011;59.912;30.300;2022-07-29T10:15:21;2.35;;;0.52;;
35917;SDS011;22011;59.912;30.300;2022-07-29T10:17:50;13.15;;;1.10;;
35917;SDS011;22011;59.912;30.300;2022-07-29T10:20:20;7.40;;;1.08;;
35917;SDS011;22011;59.912;30.300;2022-07-29T10:25:16;3.60;;;0.80;;
35917;SDS011;22011;59.912;30.300;2022-07-29T10:27:44;3.88;;;0.80;;
35917;SDS011;22011;59.912;30.300;2022-07-29T10:30:14;5.60;;;0.70;;
35917;SDS011;22011;59.912;30.300;2022-07-29T10:32:52;1.13;;;0.55;;
35917;SDS011;22011;59.912;30.300;2022-07-29T10:35:47;2.05;;;0.82;;
35917;SDS011;22011;59.912;30.300;2022-07-29T10:38:29;2.17;;;0.80;;
35917;SDS011;22011;59.912;30.300;2022-07-29T10:41:23;1.15;;;0.60;;
35917;SDS011;22011;59.912;30.300;2022-07-29T10:44:13;3.45;;;1.23;;
35917;SDS011;22011;59.912;30.300;2022-07-29T10:46:43;3.05;;;0.73;;
35917;SDS011;22011;59.912;30.300;2022-07-29T10:49:12;2.78;;;0.70;;
35917;SDS011;22011;59.912;30.300;2022-07-29T10:51:53;3.95;;;0.93;;
35917;SDS011;22011;59.912;30.300;2022-07-29T10:54:42;1.27;;;0.73;;
35917;SDS011;22011;59.912;30.300;2022-07-29T10:57:17;2.10;;;0.43;;
35917;SDS011;22011;59.912;30.300;2022-07-29T10:59:48;0.73;;;0.50;;
35917;SDS011;22011;59.912;30.300;2022-07-29T11:05:10;0.57;;;0.50;;
35917;SDS011;22011;59.912;30.300;2022-07-29T11:10:45;3.22;;;0.50;;
35917;SDS011;22011;59.912;30.300;2022-07-29T11:16:18;0.95;;;0.70;;
35917;SDS011;22011;59.912;30.300;2022-07-29T11:21:47;3.20;;;0.80;;
35917;SDS011;22011;59.912;30.300;2022-07-29T11:24:17;5.32;;;1.02;;
35917;SDS011;22011;59.912;30.300;2022-07-29T11:29:38;3.72;;;1.00;;
35917;SDS011;22011;59.912;30.300;2022-07-29T11:32:08;6.78;;;1.65;;
35917;SDS011;22011;59.912;30.300;2022-07-29T11:34:37;7.35;;;1.00;;
35917;SDS011;22011;59.912;30.300;2022-07-29T11:37:16;6.55;;;0.98;;
35917;SDS011;22011;59.912;30.300;2022-07-29T11:39:47;2.27;;;0.70;;
35917;SDS011;22011;59.912;30.300;2022-07-29T11:42:40;1.98;;;0.50;;
35917;SDS011;22011;59.912;30.300;2022-07-29T11:45:10;2.30;;;0.60;;
35917;SDS011;22011;59.912;30.300;2022-07-29T11:50:08;2.25;;;0.95;;
35917;SDS011;22011;59.912;30.300;2022-07-29T11:52:38;5.85;;;0.90;;
35917;SDS011;22011;59.912;30.300;2022-07-29T11:55:12;6.10;;;1.00;;
35917;SDS011;22011;59.912;30.300;2022-07-29T11:57:47;3.72;;;1.10;;
35917;SDS011;22011;59.912;30.300;2022-07-29T12:00:23;5.43;;;0.80;;
35917;SDS011;22011;59.912;30.300;2022-07-29T12:02:52;2.78;;;0.82;;
35917;SDS011;22011;59.912;30.300;2022-07-29T12:05:21;7.85;;;0.80;;
35917;SDS011;22011;59.912;30.300;2022-07-29T12:07:58;3.22;;;0.90;;
35917;SDS011;22011;59.912;30.300;2022-07-29T12:10:33;2.47;;;0.60;;
35917;SDS011;22011;59.912;30.300;2022-07-29T12:13:01;1.05;;;0.65;;
35917;SDS011;22011;59.912;30.300;2022-07-29T12:15:29;8.50;;;0.70;;
35917;SDS011;22011;59.912;30.300;2022-07-29T12:17:57;0.80;;;0.60;;
35917;SDS011;22011;59.912;30.300;2022-07-29T12:20:25;3.58;;;1.23;;
35917;SDS011;22011;59.912;30.300;2022-07-29T12:22:54;0.35;;;0.30;;
35917;SDS011;22011;59.912;30.300;2022-07-29T12:25:23;5.30;;;0.63;;
35917;SDS011;22011;59.912;30.300;2022-07-29T12:28:00;1.83;;;0.50;;
35917;SDS011;22011;59.912;30.300;2022-07-29T12:30:40;2.72;;;1.02;;
35917;SDS011;22011;59.912;30.300;2022-07-29T12:33:10;4.68;;;0.68;;
35917;SDS011;22011;59.912;30.300;2022-07-29T12:35:47;0.77;;;0.43;;
35917;SDS011;22011;59.912;30.300;2022-07-29T12:38:17;0.55;;;0.50;;
35917;SDS011;22011;59.912;30.300;2022-07-29T12:40:45;4.05;;;0.60;;
35917;SDS011;22011;59.912;30.300;2022-07-29T12:43:16;2.00;;;0.50;;
35917;SDS011;22011;59.912;30.300;2022-07-29T12:45:45;4.05;;;0.60;;
35917;SDS011;22011;59.912;30.300;2022-07-29T12:48:15;2.30;;;0.50;;
35917;SDS011;22011;59.912;30.300;2022-07-29T12:50:53;1.42;;;0.68;;
35917;SDS011;22011;59.912;30.300;2022-07-29T12:53:22;0.77;;;0.52;;
35917;SDS011;22011;59.912;30.300;2022-07-29T12:55:51;2.78;;;0.60;;
35917;SDS011;22011;59.912;30.300;2022-07-29T12:58:28;2.55;;;0.98;;
35917;SDS011;22011;59.912;30.300;2022-07-29T13:01:00;4.65;;;0.80;;
35917;SDS011;22011;59.912;30.300;2022-07-29T13:03:41;1.33;;;0.60;;
35917;SDS011;22011;59.912;30.300;2022-07-29T13:06:32;3.67;;;0.50;;
35917;SDS011;22011;59.912;30.300;2022-07-29T13:09:03;3.10;;;0.80;;
35917;SDS011;22011;59.912;30.300;2022-07-29T13:11:34;2.10;;;1.13;;
35917;SDS011;22011;59.912;30.300;2022-07-29T13:14:04;1.85;;;0.82;;
35917;SDS011;22011;59.912;30.300;2022-07-29T13:19:03;3.85;;;0.95;;
35917;SDS011;22011;59.912;30.300;2022-07-29T13:21:32;5.68;;;0.68;;
35917;SDS011;22011;59.912;30.300;2022-07-29T13:24:00;1.30;;;0.50;;
35917;SDS011;22011;59.912;30.300;2022-07-29T13:26:28;2.05;;;0.77;;
35917;SDS011;22011;59.912;30.300;2022-07-29T13:28:56;2.90;;;0.50;;
35917;SDS011;22011;59.912;30.300;2022-07-29T13:31:25;1.83;;;0.50;;
35917;SDS011;22011;59.912;30.300;2022-07-29T13:33:52;5.78;;;0.82;;
35917;SDS011;22011;59.912;30.300;2022-07-29T13:36:20;0.80;;;0.63;;
35917;SDS011;22011;59.912;30.300;2022-07-29T13:38:47;1.45;;;0.70;;
35917;SDS011;22011;59.912;30.300;2022-07-29T13:41:15;3.28;;;0.60;;
35917;SDS011;22011;59.912;30.300;2022-07-29T13:43:43;2.08;;;0.50;;
35917;SDS011;22011;59.912;30.300;2022-07-29T13:46:11;1.20;;;0.35;;
35917;SDS011;22011;59.912;30.300;2022-07-29T13:48:40;1.05;;;0.50;;
35917;SDS011;22011;59.912;30.300;2022-07-29T13:51:07;0.53;;;0.43;;
35917;SDS011;22011;59.912;30.300;2022-07-29T13:53:35;1.15;;;0.50;;
35917;SDS011;22011;59.912;30.300;2022-07-29T13:56:03;0.52;;;0.40;;
35917;SDS011;22011;59.912;30.300;2022-07-29T13:58:32;5.10;;;0.73;;
35917;SDS011;22011;59.912;30.300;2022-07-29T14:01:00;2.78;;;0.45;;
35917;SDS011;22011;59.912;30.300;2022-07-29T14:03:27;0.82;;;0.50;;
35917;SDS011;22011;59.912;30.300;2022-07-29T14:05:56;1.25;;;0.40;;
35917;SDS011;22011;59.912;30.300;2022-07-29T14:08:25;3.95;;;0.40;;
35917;SDS011;22011;59.912;30.300;2022-07-29T14:10:53;1.50;;;0.30;;
35917;SDS011;22011;59.912;30.300;2022-07-29T14:13:21;6.38;;;0.57;;
35917;SDS011;22011;59.912;30.300;2022-07-29T14:15:48;1.80;;;0.40;;
35917;SDS011;22011;59.912;30.300;2022-07-29T14:18:16;0.30;;;0.30;;
35917;SDS011;22011;59.912;30.300;2022-07-29T14:20:44;0.30;;;0.30;;
35917;SDS011;22011;59.912;30.300;2022-07-29T14:23:13;0.60;;;0.47;;
35917;SDS011;22011;59.912;30.300;2022-07-29T14:25:40;0.88;;;0.30;;
35917;SDS011;22011;59.912;30.300;2022-07-29T14:28:08;0.65;;;0.50;;
35917;SDS011;22011;59.912;30.300;2022-07-29T14:30:35;3.55;;;0.60;;
35917;SDS011;22011;59.912;30.300;2022-07-29T14:33:03;4.65;;;0.60;;
35917;SDS011;22011;59.912;30.300;2022-07-29T14:35:31;1.00;;;0.40;;
35917;SDS011;22011;59.912;30.300;2022-07-29T14:37:58;0.50;;;0.50;;
35917;SDS011;22011;59.912;30.300;2022-07-29T14:40:27;4.00;;;1.00;;
35917;SDS011;22011;59.912;30.300;2022-07-29T14:42:55;1.27;;;0.40;;
35917;SDS011;22011;59.912;30.300;2022-07-29T14:45:23;0.65;;;0.38;;
35917;SDS011;22011;59.912;30.300;2022-07-29T14:47:51;0.50;;;0.47;;
35917;SDS011;22011;59.912;30.300;2022-07-29T14:50:18;0.43;;;0.43;;
35917;SDS011;22011;59.912;30.300;2022-07-29T14:52:46;3.50;;;0.80;;
35917;SDS011;22011;59.912;30.300;2022-07-29T14:55:14;0.43;;;0.43;;
35917;SDS011;22011;59.912;30.300;2022-07-29T14:57:43;0.77;;;0.52;;
35917;SDS011;22011;59.912;30.300;2022-07-29T15:00:11;0.63;;;0.47;;
35917;SDS011;22011;59.912;30.300;2022-07-29T15:02:39;3.00;;;0.80;;
35917;SDS011;22011;59.912;30.300;2022-07-29T15:05:07;1.13;;;0.80;;
35917;SDS011;22011;59.912;30.300;2022-07-29T15:07:34;2.65;;;0.90;;
35917;SDS011;22011;59.912;30.300;2022-07-29T15:10:02;1.23;;;1.00;;
35917;SDS011;22011;59.912;30.300;2022-07-29T15:12:30;1.08;;;0.88;;
35917;SDS011;22011;59.912;30.300;2022-07-29T15:14:59;1.27;;;0.60;;
35917;SDS011;22011;59.912;30.300;2022-07-29T15:17:26;1.40;;;0.80;;